createdAt,value
2023-01-29T00:02:00.200Z,99.90
2023-01-29T00:04:27.225Z,99.90
2023-01-29T00:06:53.988Z,99.90
2023-01-29T00:09:20.747Z,99.90
2023-01-29T00:11:48.060Z,99.90
2023-01-29T00:14:15.026Z,99.90
2023-01-29T00:16:41.791Z,99.90
2023-01-29T00:19:08.770Z,99.90
2023-01-29T00:21:35.527Z,99.90
2023-01-29T00:24:02.528Z,99.90
2023-01-29T00:26:29.679Z,99.90
2023-01-29T00:29:02.812Z,99.90
2023-01-29T00:31:30.278Z,99.90
2023-01-29T00:33:57.445Z,99.90
2023-01-29T00:36:25.889Z,99.90
2023-01-29T00:39:00.871Z,99.90
2023-01-29T00:41:51.574Z,99.90
2023-01-29T00:44:37.858Z,99.90
2023-01-29T00:47:25.936Z,99.90
2023-01-29T00:49:52.921Z,99.90
2023-01-29T00:52:25.441Z,99.90
2023-01-29T00:54:54.391Z,99.90
2023-01-29T00:57:21.491Z,99.90
2023-01-29T00:59:48.228Z,99.90
2023-01-29T01:02:33.677Z,99.90
2023-01-29T01:05:03.143Z,99.90
2023-01-29T01:07:30.726Z,99.90
2023-01-29T01:10:17.090Z,99.90
2023-01-29T01:12:44.368Z,99.90
2023-01-29T01:15:11.952Z,99.90
2023-01-29T01:17:38.689Z,99.90
2023-01-29T01:20:06.216Z,99.90
2023-01-29T01:22:32.892Z,99.90
2023-01-29T01:24:59.570Z,99.90
2023-01-29T01:27:26.583Z,99.90
2023-01-29T01:29:53.294Z,99.90
2023-01-29T01:32:20.238Z,99.90
2023-01-29T01:34:46.900Z,99.90
2023-01-29T01:37:13.769Z,99.90
2023-01-29T01:39:40.715Z,99.90
2023-01-29T01:42:13.297Z,99.90
2023-01-29T01:44:59.528Z,99.90
2023-01-29T01:47:47.931Z,99.90
2023-01-29T01:50:19.249Z,99.90
2023-01-29T01:52:53.032Z,99.90
2023-01-29T01:55:24.921Z,99.90
2023-01-29T01:57:59.401Z,99.90
2023-01-29T02:00:27.133Z,99.90
2023-01-29T02:03:13.454Z,99.90
2023-01-29T02:05:59.959Z,99.90
2023-01-29T02:09:05.931Z,99.90
2023-01-29T02:11:32.688Z,99.90
2023-01-29T02:13:59.773Z,99.90
2023-01-29T02:16:26.659Z,99.90
2023-01-29T02:18:53.647Z,99.90
2023-01-29T02:21:32.494Z,99.90
2023-01-29T02:24:23.414Z,99.90
2023-01-29T02:27:07.328Z,99.90
2023-01-29T02:29:39.879Z,99.90
2023-01-29T02:32:29.843Z,99.90
2023-01-29T02:35:32.303Z,99.90
2023-01-29T02:38:07.852Z,99.90
2023-01-29T02:41:00.623Z,99.90
2023-01-29T02:43:44.352Z,99.90
2023-01-29T02:46:32.735Z,99.90
2023-01-29T02:49:07.415Z,99.90
2023-01-29T02:51:42.407Z,99.90
2023-01-29T02:54:23.307Z,99.90
2023-01-29T02:56:59.685Z,99.90
2023-01-29T02:59:36.150Z,99.90
2023-01-29T03:02:08.732Z,99.90
2023-01-29T03:04:42.646Z,99.90
2023-01-29T03:07:37.863Z,99.90
2023-01-29T03:10:13.530Z,99.90
2023-01-29T03:12:42.896Z,99.90
2023-01-29T03:15:17.024Z,99.90
2023-01-29T03:18:07.781Z,99.90
2023-01-29T03:20:40.272Z,99.90
2023-01-29T03:23:18.862Z,99.90
2023-01-29T03:26:04.138Z,99.90
2023-01-29T03:28:51.209Z,99.90
2023-01-29T03:31:37.805Z,99.90
2023-01-29T03:34:16.398Z,99.90
2023-01-29T03:36:55.993Z,99.90
2023-01-29T03:39:25.579Z,99.90
2023-01-29T03:42:03.183Z,99.90
2023-01-29T03:44:40.449Z,99.90
2023-01-29T03:47:17.369Z,99.90
2023-01-29T03:49:47.068Z,99.90
2023-01-29T03:52:20.785Z,99.90
2023-01-29T03:55:10.781Z,99.90
2023-01-29T03:57:46.315Z,99.90
2023-01-29T04:00:40.444Z,99.90
2023-01-29T04:03:18.250Z,99.90
2023-01-29T04:05:51.661Z,99.90
2023-01-29T04:08:30.868Z,99.90
2023-01-29T04:11:01.956Z,99.90
2023-01-29T04:13:33.958Z,99.90
2023-01-29T04:16:04.691Z,99.90
2023-01-29T04:18:31.476Z,99.90
2023-01-29T04:20:59.792Z,99.90
2023-01-29T04:23:28.068Z,99.90
2023-01-29T04:26:32.212Z,99.90
2023-01-29T04:29:19.392Z,99.90
2023-01-29T04:32:08.396Z,99.90
2023-01-29T04:34:52.322Z,99.90
2023-01-29T04:37:53.292Z,99.90
2023-01-29T04:40:42.743Z,99.90
2023-01-29T04:43:32.752Z,99.90
2023-01-29T04:46:10.399Z,99.90
2023-01-29T04:49:02.147Z,99.90
2023-01-29T04:51:56.040Z,99.90
2023-01-29T04:54:40.739Z,99.90
2023-01-29T04:57:26.708Z,99.90
2023-01-29T05:00:10.353Z,99.90
2023-01-29T05:02:40.029Z,99.90
2023-01-29T05:05:08.589Z,99.90
2023-01-29T05:07:38.253Z,99.90
2023-01-29T05:10:08.507Z,99.90
2023-01-29T05:12:37.866Z,99.90
2023-01-29T05:15:12.589Z,99.90
2023-01-29T05:17:39.420Z,99.90
2023-01-29T05:20:07.515Z,99.90
2023-01-29T05:22:38.131Z,99.90
2023-01-29T05:25:10.993Z,99.90
2023-01-29T05:27:56.234Z,99.90
2023-01-29T05:30:23.160Z,99.90
2023-01-29T05:32:50.976Z,99.90
2023-01-29T05:35:18.035Z,99.90
2023-01-29T05:37:44.794Z,99.90
2023-01-29T05:40:11.865Z,99.90
2023-01-29T05:42:38.831Z,99.90
2023-01-29T05:45:06.160Z,99.90
2023-01-29T05:47:32.902Z,99.90
2023-01-29T05:49:59.612Z,99.90
2023-01-29T05:52:26.575Z,99.90
2023-01-29T05:54:53.550Z,99.90
2023-01-29T05:57:20.312Z,99.90
2023-01-29T05:59:47.042Z,99.90
2023-01-29T06:02:13.771Z,99.90
2023-01-29T06:04:40.716Z,99.90
2023-01-29T06:07:07.505Z,99.90
2023-01-29T06:09:34.454Z,99.90
2023-01-29T06:12:01.228Z,99.90
2023-01-29T06:14:28.196Z,99.90
2023-01-29T06:16:55.135Z,99.90
2023-01-29T06:19:21.869Z,99.90
2023-01-29T06:21:48.820Z,99.90
2023-01-29T06:24:15.731Z,99.90
2023-01-29T06:26:42.518Z,99.90
2023-01-29T06:29:09.248Z,99.90
2023-01-29T06:31:39.154Z,99.90
2023-01-29T06:34:07.727Z,99.90
2023-01-29T06:36:35.022Z,99.90
2023-01-29T06:39:02.040Z,99.90
2023-01-29T06:41:28.810Z,99.90
2023-01-29T06:43:55.845Z,99.90
2023-01-29T06:46:22.843Z,99.90
2023-01-29T06:48:49.631Z,99.90
2023-01-29T06:51:16.670Z,99.90
2023-01-29T06:53:46.078Z,99.90
2023-01-29T06:56:13.343Z,99.90
2023-01-29T06:58:40.139Z,99.90
2023-01-29T07:01:09.393Z,99.90
2023-01-29T07:03:36.455Z,99.90
2023-01-29T07:06:04.062Z,99.90
2023-01-29T07:08:30.924Z,99.90
2023-01-29T07:11:01.385Z,99.90
2023-01-29T07:13:28.393Z,99.90
2023-01-29T07:15:58.191Z,99.90
2023-01-29T07:18:24.936Z,99.90
2023-01-29T07:20:51.943Z,99.90
2023-01-29T07:23:18.743Z,99.90
2023-01-29T07:25:46.201Z,99.90
2023-01-29T07:28:12.870Z,99.90
2023-01-29T07:30:39.593Z,99.90
2023-01-29T07:33:08.879Z,99.90
2023-01-29T07:35:43.224Z,99.90
2023-01-29T07:38:11.566Z,99.90
2023-01-29T07:40:38.417Z,99.90
2023-01-29T07:43:07.355Z,99.90
2023-01-29T07:45:36.222Z,99.90
2023-01-29T07:48:05.268Z,99.90
2023-01-29T07:50:33.660Z,99.90
2023-01-29T07:53:00.832Z,99.90
2023-01-29T07:55:36.657Z,99.90
2023-01-29T07:58:05.387Z,99.90
2023-01-29T08:00:32.906Z,99.90
2023-01-29T08:03:26.110Z,99.90
2023-01-29T08:06:53.816Z,99.90
2023-01-29T08:09:20.501Z,99.90
2023-01-29T08:11:47.510Z,99.90
2023-01-29T08:14:14.348Z,99.90
2023-01-29T08:16:41.119Z,99.90
2023-01-29T08:19:07.870Z,99.90
2023-01-29T08:21:34.814Z,99.90
2023-01-29T08:26:28.182Z,99.90
2023-01-29T08:28:55.209Z,99.90
2023-01-29T08:31:22.061Z,99.90
2023-01-29T08:33:49.582Z,99.90
2023-01-29T08:36:16.279Z,99.90
2023-01-29T08:38:43.005Z,99.90
2023-01-29T08:41:09.982Z,99.90
2023-01-29T08:43:40.577Z,99.90
2023-01-29T08:46:08.720Z,99.90
2023-01-29T08:48:35.850Z,99.90
2023-01-29T08:51:03.071Z,99.90
2023-01-29T08:53:30.536Z,99.90
2023-01-29T08:55:57.307Z,99.90
2023-01-29T08:58:24.025Z,99.90
2023-01-29T09:00:50.757Z,99.90
2023-01-29T09:03:17.748Z,99.90
2023-01-29T09:05:44.573Z,99.90
2023-01-29T09:08:11.565Z,99.90
2023-01-29T09:10:38.283Z,99.90
2023-01-29T09:13:05.534Z,99.90
2023-01-29T09:15:32.527Z,99.90
2023-01-29T09:18:04.448Z,99.90
2023-01-29T09:20:31.236Z,99.90
2023-01-29T09:22:59.178Z,99.90
2023-01-29T09:25:26.266Z,99.90
2023-01-29T09:27:54.809Z,99.90
2023-01-29T09:30:22.077Z,99.90
2023-01-29T09:32:53.627Z,99.90
2023-01-29T09:35:24.282Z,99.90
2023-01-29T09:37:52.121Z,99.90
2023-01-29T09:40:41.154Z,99.90
2023-01-29T09:43:19.127Z,99.90
2023-01-29T09:45:57.117Z,99.90
2023-01-29T09:48:29.205Z,99.90
2023-01-29T09:50:57.861Z,99.90
2023-01-29T09:53:51.870Z,99.90
2023-01-29T09:56:23.718Z,99.90
2023-01-29T09:58:50.561Z,99.90
2023-01-29T10:01:40.889Z,99.90
2023-01-29T10:04:35.632Z,99.90
2023-01-29T10:07:20.426Z,99.90
2023-01-29T10:10:25.975Z,99.90
2023-01-29T10:13:34.775Z,99.90
2023-01-29T10:16:07.240Z,99.90
2023-01-29T10:19:01.112Z,99.90
2023-01-29T10:22:03.980Z,99.90
2023-01-29T10:24:37.175Z,99.90
2023-01-29T10:27:12.234Z,99.90
2023-01-29T10:29:44.427Z,99.90
2023-01-29T10:32:20.914Z,99.90
2023-01-29T10:34:57.721Z,99.90
2023-01-29T10:37:39.804Z,99.90
2023-01-29T10:40:22.158Z,99.90
2023-01-29T10:43:13.017Z,99.90
2023-01-29T10:45:46.418Z,99.90
2023-01-29T10:48:55.135Z,99.90
2023-01-29T10:51:44.099Z,99.90
2023-01-29T10:54:40.537Z,99.90
2023-01-29T10:57:26.331Z,99.90
2023-01-29T11:00:12.861Z,99.90
2023-01-29T11:02:48.956Z,99.90
2023-01-29T11:05:39.351Z,99.90
2023-01-29T11:08:16.104Z,99.90
2023-01-29T11:11:17.417Z,99.90
2023-01-29T11:14:22.853Z,99.90
2023-01-29T11:16:51.203Z,99.90
2023-01-29T11:20:07.277Z,99.90
2023-01-29T11:22:34.531Z,99.90
2023-01-29T11:25:20.470Z,99.90
2023-01-29T11:27:56.746Z,99.90
2023-01-29T11:30:25.879Z,99.90
2023-01-29T11:33:14.400Z,99.90
2023-01-29T11:35:41.371Z,99.90
2023-01-29T11:38:21.553Z,99.90
2023-01-29T11:40:48.498Z,99.90
2023-01-29T11:43:27.502Z,99.90
2023-01-29T11:46:00.578Z,99.90
2023-01-29T11:48:44.313Z,99.90
2023-01-29T11:51:20.375Z,99.90
2023-01-29T11:53:56.806Z,99.90
2023-01-29T12:00:26.357Z,99.90
2023-01-29T12:02:54.770Z,99.90
2023-01-29T12:05:25.479Z,99.90
2023-01-29T12:07:55.521Z,99.90
2023-01-29T12:10:34.509Z,99.90
2023-01-29T12:13:16.827Z,99.90
2023-01-29T12:15:43.815Z,99.90
2023-01-29T12:18:22.430Z,99.30
2023-01-29T12:21:05.415Z,99.00
2023-01-29T12:24:06.372Z,98.80
2023-01-29T12:26:43.401Z,97.70
2023-01-29T12:29:41.301Z,96.30
2023-01-29T12:32:39.612Z,95.20
2023-01-29T12:35:22.697Z,93.70
2023-01-29T12:38:16.458Z,93.80
2023-01-29T12:40:55.646Z,92.60
2023-01-29T12:43:48.511Z,91.70
2023-01-29T12:46:39.927Z,92.50
2023-01-29T12:49:15.673Z,93.10
2023-01-29T12:51:55.891Z,94.10
2023-01-29T12:54:42.284Z,95.90
2023-01-29T12:57:19.814Z,96.80
2023-01-29T12:59:53.716Z,96.80
2023-01-29T13:02:40.234Z,97.10
2023-01-29T13:05:31.567Z,96.00
2023-01-29T13:08:05.059Z,95.50
2023-01-29T13:10:53.976Z,94.60
2023-01-29T13:13:38.816Z,93.60
2023-01-29T13:16:11.150Z,95.20
2023-01-29T13:18:59.500Z,96.00
2023-01-29T13:21:39.589Z,96.20
2023-01-29T13:24:15.349Z,96.90
2023-01-29T13:26:48.607Z,97.60
2023-01-29T13:29:26.731Z,98.40
2023-01-29T13:31:58.654Z,98.90
2023-01-29T13:34:33.864Z,99.30
2023-01-29T13:37:28.144Z,99.00
2023-01-29T13:39:56.746Z,99.40
2023-01-29T13:42:49.163Z,99.60
2023-01-29T13:45:25.812Z,99.30
2023-01-29T13:47:53.571Z,99.70
2023-01-29T13:50:34.785Z,99.90
2023-01-29T13:53:04.266Z,99.90
2023-01-29T13:55:31.649Z,99.90
2023-01-29T13:58:02.869Z,99.90
2023-01-29T14:00:35.730Z,99.90
2023-01-29T14:03:05.608Z,99.90
2023-01-29T14:05:33.761Z,99.90
2023-01-29T14:08:26.923Z,99.90
2023-01-29T14:11:15.676Z,99.60
2023-01-29T14:13:47.453Z,98.70
2023-01-29T14:16:14.422Z,98.30
2023-01-29T14:18:58.919Z,97.70
2023-01-29T14:21:33.733Z,98.60
2023-01-29T14:24:13.120Z,99.00
2023-01-29T14:26:44.025Z,99.80
2023-01-29T14:29:21.331Z,99.90
2023-01-29T14:31:54.781Z,99.90
2023-01-29T14:34:31.744Z,99.90
2023-01-29T14:37:40.971Z,99.90
2023-01-29T14:40:19.867Z,99.90
2023-01-29T14:42:46.840Z,99.90
2023-01-29T14:45:25.104Z,99.90
2023-01-29T14:48:04.353Z,99.90
2023-01-29T14:50:34.816Z,99.90
2023-01-29T14:53:23.495Z,99.90
2023-01-29T14:56:11.059Z,99.90
2023-01-29T14:58:40.574Z,99.90
2023-01-29T15:01:35.570Z,99.90
2023-01-29T15:04:13.973Z,99.90
2023-01-29T15:06:57.267Z,99.90
2023-01-29T15:09:36.753Z,99.90
2023-01-29T15:12:20.902Z,99.90
2023-01-29T15:15:19.064Z,99.90
2023-01-29T15:18:02.011Z,99.90
2023-01-29T15:20:32.109Z,99.90
2023-01-29T15:23:00.002Z,99.90
2023-01-29T15:25:30.976Z,99.90
2023-01-29T15:27:58.880Z,99.90
2023-01-29T15:30:33.447Z,99.90
2023-01-29T15:33:02.133Z,99.90
2023-01-29T15:35:34.398Z,99.90
2023-01-29T15:38:17.497Z,99.90
2023-01-29T15:41:00.979Z,99.90
2023-01-29T15:43:28.713Z,99.90
2023-01-29T15:46:05.802Z,99.90
2023-01-29T15:48:39.108Z,99.90
2023-01-29T15:51:16.312Z,99.90
2023-01-29T15:53:48.818Z,99.90
2023-01-29T15:56:19.816Z,99.90
2023-01-29T15:58:49.476Z,99.90
2023-01-29T16:01:16.799Z,99.90
2023-01-29T16:03:44.516Z,99.90
2023-01-29T16:06:11.765Z,99.90
2023-01-29T16:08:40.473Z,99.90
2023-01-29T16:11:08.327Z,99.90
2023-01-29T16:13:40.005Z,99.90
2023-01-29T16:16:21.050Z,99.90
2023-01-29T16:18:59.578Z,99.90
2023-01-29T16:21:37.423Z,99.90
2023-01-29T16:24:16.114Z,99.90
2023-01-29T16:26:46.546Z,99.90
2023-01-29T16:29:16.650Z,99.90
2023-01-29T16:31:46.052Z,99.90
2023-01-29T16:34:31.590Z,99.90
2023-01-29T16:37:37.195Z,99.90
2023-01-29T16:40:16.319Z,99.90
2023-01-29T16:42:43.398Z,99.90
2023-01-29T16:45:30.308Z,99.90
2023-01-29T16:48:02.212Z,99.90
2023-01-29T16:50:43.239Z,99.90
2023-01-29T16:53:21.436Z,99.90
2023-01-29T16:55:50.417Z,99.90
2023-01-29T16:58:24.511Z,99.90
2023-01-29T17:00:55.174Z,99.90
2023-01-29T17:03:25.348Z,99.90
2023-01-29T17:05:52.571Z,99.90
2023-01-29T17:08:30.659Z,99.90
2023-01-29T17:10:58.130Z,99.90
2023-01-29T17:13:37.380Z,99.90
2023-01-29T17:16:20.513Z,99.90
2023-01-29T17:18:47.295Z,99.90
2023-01-29T17:21:14.017Z,99.90
2023-01-29T17:23:40.737Z,99.90
2023-01-29T17:26:10.193Z,99.90
2023-01-29T17:28:37.449Z,99.90
2023-01-29T17:31:07.000Z,99.90
2023-01-29T17:33:35.714Z,99.90
2023-01-29T17:36:02.499Z,99.90
2023-01-29T17:38:29.214Z,99.90
2023-01-29T17:41:04.598Z,99.90
2023-01-29T17:43:31.672Z,99.90
2023-01-29T17:45:58.551Z,99.90
2023-01-29T17:48:28.942Z,99.90
2023-01-29T17:51:06.180Z,99.90
2023-01-29T17:53:45.368Z,99.90
2023-01-29T17:56:29.581Z,99.90
2023-01-29T17:58:58.681Z,99.90
2023-01-29T18:01:25.483Z,99.90
2023-01-29T18:03:53.360Z,99.90
2023-01-29T18:06:29.484Z,99.90
2023-01-29T18:08:56.739Z,99.90
2023-01-29T18:11:28.287Z,99.90
2023-01-29T18:13:56.073Z,99.90
2023-01-29T18:16:28.669Z,99.90
2023-01-29T18:22:43.109Z,99.90
2023-01-29T18:25:16.420Z,99.90
2023-01-29T18:27:43.696Z,99.90
2023-01-29T18:30:24.148Z,99.90
2023-01-29T18:32:50.909Z,99.90
2023-01-29T18:35:18.254Z,99.90
2023-01-29T18:37:45.233Z,99.90
2023-01-29T18:40:17.265Z,99.90
2023-01-29T18:42:47.929Z,99.90
2023-01-29T18:45:15.634Z,99.90
2023-01-29T18:47:42.624Z,99.90
2023-01-29T18:50:12.089Z,99.90
2023-01-29T18:52:44.996Z,99.90
2023-01-29T18:55:12.775Z,99.90
2023-01-29T18:58:28.308Z,99.90
2023-01-29T19:00:27.264Z,99.90
2023-01-29T19:02:54.049Z,99.90
2023-01-29T19:05:23.879Z,99.90
2023-01-29T19:07:52.171Z,99.90
2023-01-29T19:10:19.432Z,99.90
2023-01-29T19:12:46.273Z,99.90
2023-01-29T19:15:13.032Z,99.90
2023-01-29T19:17:40.000Z,99.90
2023-01-29T19:20:07.521Z,99.90
2023-01-29T19:22:34.308Z,99.90
2023-01-29T19:25:01.470Z,99.90
2023-01-29T19:27:30.474Z,99.90
2023-01-29T19:29:59.527Z,99.90
2023-01-29T19:32:28.837Z,99.90
2023-01-29T19:34:55.658Z,99.90
2023-01-29T19:37:22.724Z,99.90
2023-01-29T19:39:49.611Z,99.90
2023-01-29T19:42:17.161Z,99.90
2023-01-29T19:44:45.415Z,99.90
2023-01-29T19:47:12.389Z,99.90
2023-01-29T19:49:40.491Z,99.90
2023-01-29T19:52:15.086Z,99.90
2023-01-29T19:54:46.728Z,99.90
2023-01-29T19:57:13.712Z,99.90
2023-01-29T19:59:40.378Z,99.90
2023-01-29T20:02:07.221Z,99.90
2023-01-29T20:04:34.259Z,99.90
2023-01-29T20:07:01.088Z,99.90
2023-01-29T20:09:29.409Z,99.90
2023-01-29T20:11:56.532Z,99.90
2023-01-29T20:14:23.226Z,99.90
2023-01-29T20:16:50.168Z,99.90
2023-01-29T20:19:16.916Z,99.90
2023-01-29T20:21:47.261Z,99.90
2023-01-29T20:24:14.694Z,99.90
2023-01-29T20:26:41.777Z,99.90
2023-01-29T20:29:08.476Z,99.90
2023-01-29T20:31:35.231Z,99.90
2023-01-29T20:34:02.305Z,99.90
2023-01-29T20:36:29.089Z,99.90
2023-01-29T20:38:55.854Z,99.90
2023-01-29T20:41:22.934Z,99.90
2023-01-29T20:43:50.998Z,99.90
2023-01-29T20:46:18.044Z,99.90
2023-01-29T20:48:45.135Z,99.90
2023-01-29T20:51:17.699Z,99.90
2023-01-29T20:53:46.313Z,99.90
2023-01-29T20:56:14.697Z,99.90
2023-01-29T20:58:41.740Z,99.90
2023-01-29T21:01:10.863Z,99.90
2023-01-29T21:03:39.249Z,99.90
2023-01-29T21:06:07.497Z,99.90
2023-01-29T21:08:35.572Z,99.90
2023-01-29T21:11:03.622Z,99.90
2023-01-29T21:13:30.463Z,99.90
2023-01-29T21:15:57.428Z,99.90
2023-01-29T21:18:26.264Z,99.90
2023-01-29T21:20:54.021Z,99.90
2023-01-29T21:23:21.647Z,99.90
2023-01-29T21:25:48.412Z,99.90
2023-01-29T21:28:16.017Z,99.90
2023-01-29T21:30:43.243Z,99.90
2023-01-29T21:33:10.047Z,99.90
2023-01-29T21:35:37.848Z,99.90
2023-01-29T21:38:05.111Z,99.90
2023-01-29T21:40:32.164Z,99.90
2023-01-29T21:43:15.455Z,99.90
2023-01-29T21:45:43.441Z,99.90
2023-01-29T21:48:11.961Z,99.90
2023-01-29T21:50:38.825Z,99.90
2023-01-29T21:53:05.878Z,99.90
2023-01-29T21:55:32.924Z,99.90
2023-01-29T21:58:00.438Z,99.90
2023-01-29T22:00:27.674Z,99.90
2023-01-29T22:02:54.532Z,99.90
2023-01-29T22:05:21.410Z,99.90
2023-01-29T22:07:49.486Z,99.90
2023-01-29T22:10:17.866Z,99.90
2023-01-29T22:12:45.106Z,99.90
2023-01-29T22:15:12.496Z,99.90
2023-01-29T22:17:41.273Z,99.90
2023-01-29T22:20:30.891Z,99.90
2023-01-29T22:22:59.392Z,99.90
2023-01-29T22:25:26.837Z,99.90
2023-01-29T22:27:53.836Z,99.90
2023-01-29T22:30:21.767Z,99.90
2023-01-29T22:32:49.024Z,99.90
2023-01-29T22:35:16.028Z,99.90
2023-01-29T22:37:42.765Z,99.90
2023-01-29T22:40:10.373Z,99.90
2023-01-29T22:42:37.331Z,99.90
2023-01-29T22:45:04.274Z,99.90
2023-01-29T22:47:33.028Z,99.90
2023-01-29T22:50:00.103Z,99.90
2023-01-29T22:52:28.116Z,99.90
2023-01-29T22:54:54.872Z,99.90
2023-01-29T22:57:21.758Z,99.90
2023-01-29T22:59:48.756Z,99.90
2023-01-29T23:02:15.593Z,99.90
2023-01-29T23:04:42.431Z,99.90
2023-01-29T23:07:09.649Z,99.90
2023-01-29T23:09:36.367Z,99.90
2023-01-29T23:12:03.355Z,99.90
2023-01-29T23:14:30.164Z,99.90
2023-01-29T23:16:56.906Z,99.90
2023-01-29T23:19:23.924Z,99.90
2023-01-29T23:21:50.677Z,99.90
2023-01-29T23:24:17.400Z,99.90
2023-01-29T23:27:02.708Z,99.90
2023-01-29T23:29:29.485Z,99.90
2023-01-29T23:31:56.434Z,99.90
2023-01-29T23:34:23.208Z,99.90
2023-01-29T23:36:50.231Z,99.90
2023-01-29T23:39:17.311Z,99.90
2023-01-29T23:41:44.327Z,99.90
2023-01-29T23:44:11.478Z,99.90
2023-01-29T23:46:38.457Z,99.90
2023-01-29T23:49:05.185Z,99.90
2023-01-29T23:51:32.238Z,99.90
2023-01-29T23:53:58.973Z,99.90
2023-01-29T23:56:26.061Z,99.90
2023-01-29T23:58:54.789Z,99.90
